Time;durP1;ratioP1;P1;durP2;ratioP2;P2;SDS_P1;SDS_P2;PMS_P1;PMS_P2;Temp;Humidity;BMP_temperature;BMP_pressure;BME280_temperature;BME280_humidity;BME280_pressure;Samples;Min_cycle;Max_cycle;Signal;HPM_P1;HPM_P2
2022/07/18 00:00:05;;;;;;;7.03;3.70;;;22.50;62.20;;;;;;5069884;28;20403;-64
2022/07/18 00:02:30;;;;;;;6.25;3.25;;;22.50;62.20;;;;;;5072162;28;20048;-64
2022/07/18 00:04:56;;;;;;;6.65;3.78;;;22.50;62.20;;;;;;5070927;28;20052;-64
2022/07/18 00:07:22;;;;;;;7.40;3.63;;;22.50;62.20;;;;;;5071991;28;20041;-64
2022/07/18 00:09:47;;;;;;;7.93;3.83;;;22.50;62.20;;;;;;5070009;28;20056;-64
2022/07/18 00:12:13;;;;;;;6.45;3.35;;;22.50;62.20;;;;;;5069849;28;20071;-64
2022/07/18 00:14:38;;;;;;;6.85;3.58;;;22.50;62.20;;;;;;5070690;28;20079;-64
2022/07/18 00:17:04;;;;;;;6.47;3.80;;;22.50;62.30;;;;;;5071833;28;20082;-64
2022/07/18 00:19:30;;;;;;;6.70;3.80;;;22.50;62.20;;;;;;5069969;28;20119;-64
2022/07/18 00:21:56;;;;;;;6.45;3.30;;;22.50;62.20;;;;;;5071875;28;20060;-64
2022/07/18 00:24:21;;;;;;;7.55;3.50;;;22.50;62.30;;;;;;5070064;28;20397;-64
2022/07/18 00:26:47;;;;;;;6.88;3.50;;;22.50;62.20;;;;;;5070874;28;20090;-64
2022/07/18 00:29:12;;;;;;;6.20;3.30;;;22.50;62.30;;;;;;5071965;28;20132;-64
2022/07/18 00:31:38;;;;;;;6.05;3.40;;;22.50;62.20;;;;;;5073672;28;20089;-64
2022/07/18 00:34:03;;;;;;;6.65;3.67;;;22.50;62.30;;;;;;5074336;28;20046;-64
2022/07/18 00:36:29;;;;;;;5.70;3.28;;;22.50;62.20;;;;;;5075619;28;20483;-64
2022/07/18 00:38:55;;;;;;;8.50;3.63;;;22.50;62.30;;;;;;5073655;28;20446;-64
2022/07/18 00:41:20;;;;;;;5.78;3.28;;;22.50;62.90;;;;;;5073248;28;20047;-64
2022/07/18 00:43:47;;;;;;;6.38;3.13;;;22.50;62.30;;;;;;5075041;28;20076;-64
2022/07/18 00:46:13;;;;;;;6.07;3.25;;;22.50;62.20;;;;;;5075207;28;20063;-64
2022/07/18 00:48:39;;;;;;;6.15;3.10;;;22.50;62.30;;;;;;5074510;28;20492;-64
2022/07/18 00:51:05;;;;;;;5.85;3.53;;;22.50;62.30;;;;;;5073763;28;20071;-65
2022/07/18 00:53:30;;;;;;;6.47;3.55;;;22.50;62.30;;;;;;5074893;28;20525;-65
2022/07/18 00:55:56;;;;;;;6.43;3.67;;;22.50;62.30;;;;;;5072440;28;20041;-64
2022/07/18 00:58:21;;;;;;;7.07;3.17;;;22.50;62.20;;;;;;5073729;28;20051;-64
2022/07/18 01:03:31;;;;;;;5.93;3.15;;;22.50;62.30;;;;;;5075049;28;20044;-64
2022/07/18 01:05:56;;;;;;;6.50;3.58;;;22.40;62.20;;;;;;5074522;28;20756;-64
2022/07/18 01:08:22;;;;;;;5.97;3.63;;;22.50;62.20;;;;;;5072884;28;20480;-65
2022/07/18 01:10:47;;;;;;;5.57;3.25;;;22.50;62.30;;;;;;5074632;28;20102;-65
2022/07/18 01:13:13;;;;;;;5.93;3.53;;;22.40;62.20;;;;;;5074778;28;20097;-64
2022/07/18 01:15:39;;;;;;;7.38;3.50;;;22.40;62.20;;;;;;5073906;28;20126;-64
2022/07/18 01:18:04;;;;;;;6.50;3.58;;;22.40;62.20;;;;;;5073232;28;20044;-64
2022/07/18 01:20:30;;;;;;;5.65;3.05;;;22.40;62.20;;;;;;5072815;28;20050;-64
2022/07/18 01:22:57;;;;;;;5.72;3.20;;;22.40;62.20;;;;;;5073235;28;20079;-64
2022/07/18 01:25:22;;;;;;;6.25;3.60;;;22.40;62.20;;;;;;5074494;28;20051;-64
2022/07/18 01:27:48;;;;;;;6.50;3.25;;;22.40;62.20;;;;;;5072841;28;20040;-64
2022/07/18 01:30:14;;;;;;;6.72;3.45;;;22.40;62.20;;;;;;5089553;28;20052;-64
2022/07/18 01:32:40;;;;;;;6.40;3.40;;;22.40;62.20;;;;;;5074264;28;20051;-64
2022/07/18 01:35:06;;;;;;;6.88;4.05;;;22.40;62.20;;;;;;5073900;28;20404;-65
2022/07/18 01:37:32;;;;;;;6.18;3.45;;;22.40;62.20;;;;;;5073784;28;20048;-64
2022/07/18 01:39:57;;;;;;;6.55;3.33;;;22.40;62.20;;;;;;5089436;28;20036;-64
2022/07/18 01:42:23;;;;;;;5.82;3.20;;;22.40;62.20;;;;;;5072690;28;20055;-64
2022/07/18 01:44:48;;;;;;;6.18;3.15;;;22.40;62.20;;;;;;5073244;28;20067;-64
2022/07/18 01:47:14;;;;;;;5.80;3.60;;;22.40;62.20;;;;;;5074239;28;20041;-64
2022/07/18 01:49:39;;;;;;;6.78;3.80;;;22.40;62.20;;;;;;5073795;28;20140;-64
2022/07/18 01:52:05;;;;;;;6.95;3.35;;;22.40;62.30;;;;;;5071721;28;20041;-65
2022/07/18 01:54:31;;;;;;;5.05;3.20;;;22.40;62.20;;;;;;5073928;28;20040;-64
2022/07/18 01:56:58;;;;;;;5.55;3.17;;;22.40;62.20;;;;;;5073516;28;20075;-64
2022/07/18 01:59:24;;;;;;;4.75;2.78;;;22.40;62.20;;;;;;5073235;28;20499;-64
2022/07/18 02:01:49;;;;;;;5.30;3.20;;;22.40;62.20;;;;;;5041115;28;20072;-64
2022/07/18 02:04:15;;;;;;;6.30;3.13;;;22.40;62.30;;;;;;5051913;28;20045;-65
2022/07/18 02:06:41;;;;;;;5.80;3.20;;;22.40;62.30;;;;;;5053509;28;20098;-65
2022/07/18 02:09:06;;;;;;;5.50;2.97;;;22.40;62.20;;;;;;5052337;28;20075;-64
2022/07/18 02:11:33;;;;;;;5.45;3.17;;;22.40;62.20;;;;;;5052766;28;20049;-65
2022/07/18 02:13:58;;;;;;;5.65;2.97;;;22.40;62.30;;;;;;5052927;28;20506;-64
2022/07/18 02:16:24;;;;;;;5.30;3.10;;;22.40;62.30;;;;;;5053539;28;20131;-64
2022/07/18 02:18:49;;;;;;;5.55;3.63;;;22.40;62.30;;;;;;5052162;28;20083;-64
2022/07/18 02:21:15;;;;;;;6.30;3.28;;;22.40;62.30;;;;;;5052192;28;20131;-64
2022/07/18 02:23:41;;;;;;;5.97;3.42;;;22.40;62.30;;;;;;5053212;28;20053;-64
2022/07/18 02:26:07;;;;;;;5.53;3.38;;;22.30;62.20;;;;;;5050686;28;20455;-64
2022/07/18 02:28:32;;;;;;;6.55;3.53;;;22.40;62.30;;;;;;5052166;28;20484;-64
2022/07/18 02:30:58;;;;;;;4.82;2.90;;;22.40;62.30;;;;;;5052015;28;20751;-65
2022/07/18 02:33:23;;;;;;;5.10;3.20;;;22.30;62.30;;;;;;5052133;28;20037;-64
2022/07/18 02:35:49;;;;;;;6.32;3.58;;;22.30;62.20;;;;;;5052801;28;20171;-64
2022/07/18 02:38:14;;;;;;;4.60;2.75;;;22.40;62.30;;;;;;5052122;28;20132;-64
2022/07/18 02:40:40;;;;;;;5.47;3.40;;;22.30;62.20;;;;;;5051062;28;20480;-64
2022/07/18 02:43:05;;;;;;;6.22;3.50;;;22.30;62.20;;;;;;5051598;28;20085;-64
2022/07/18 02:45:31;;;;;;;6.03;3.78;;;22.30;62.30;;;;;;5051583;28;20040;-64
2022/07/18 02:47:57;;;;;;;5.82;3.55;;;22.30;62.30;;;;;;5051885;28;20048;-64
2022/07/18 02:50:22;;;;;;;6.32;3.58;;;22.30;62.30;;;;;;5051597;28;20507;-64
2022/07/18 02:52:50;;;;;;;7.45;3.70;;;22.30;62.30;;;;;;5051094;28;20124;-64
2022/07/18 02:55:15;;;;;;;5.07;3.00;;;22.30;62.20;;;;;;5051448;28;20040;-64
2022/07/18 02:57:41;;;;;;;5.35;3.13;;;22.30;62.30;;;;;;5052953;28;20113;-64
2022/07/18 03:00:09;;;;;;;5.00;3.17;;;22.30;62.30;;;;;;5052696;28;20499;-65
2022/07/18 03:02:34;;;;;;;5.80;3.10;;;22.30;62.30;;;;;;5050760;28;20041;-64
2022/07/18 03:05:00;;;;;;;5.63;3.35;;;22.30;62.30;;;;;;5050869;28;20373;-64
2022/07/18 03:07:25;;;;;;;6.80;3.50;;;22.30;62.30;;;;;;5051342;28;20106;-64
2022/07/18 03:09:51;;;;;;;5.18;2.90;;;22.30;62.30;;;;;;5052034;28;20045;-65
2022/07/18 03:12:17;;;;;;;6.28;3.28;;;22.30;62.30;;;;;;5052487;28;20048;-64
2022/07/18 03:14:42;;;;;;;6.07;3.20;;;22.30;62.30;;;;;;5051325;28;20072;-64
2022/07/18 03:17:08;;;;;;;6.35;3.30;;;22.20;62.30;;;;;;5051037;28;20045;-65
2022/07/18 03:19:34;;;;;;;5.70;3.17;;;22.30;62.30;;;;;;5052771;28;20041;-64
2022/07/18 03:22:00;;;;;;;5.72;3.25;;;22.20;62.30;;;;;;5051600;28;20048;-64
2022/07/18 03:24:25;;;;;;;5.80;3.40;;;22.20;62.30;;;;;;5052185;28;20136;-65
2022/07/18 03:26:51;;;;;;;5.85;3.58;;;22.20;62.30;;;;;;5050691;28;20045;-64
2022/07/18 03:29:16;;;;;;;6.00;3.35;;;22.20;62.30;;;;;;5051710;28;20055;-65
2022/07/18 03:31:42;;;;;;;5.68;3.30;;;22.20;62.30;;;;;;5051091;28;20052;-64
2022/07/18 03:34:08;;;;;;;5.82;3.30;;;22.20;62.30;;;;;;5052464;28;20044;-65
2022/07/18 03:36:33;;;;;;;5.93;3.15;;;22.20;62.30;;;;;;5051906;28;20037;-64
2022/07/18 03:38:59;;;;;;;5.28;3.00;;;22.20;62.30;;;;;;5051977;28;20037;-64
2022/07/18 03:41:24;;;;;;;5.68;3.03;;;22.20;62.30;;;;;;5052024;28;20055;-64
2022/07/18 03:43:50;;;;;;;6.10;3.42;;;22.20;62.30;;;;;;5051062;28;20044;-64
2022/07/18 03:46:15;;;;;;;5.07;3.00;;;22.20;62.30;;;;;;5051055;28;20049;-64
2022/07/18 03:48:41;;;;;;;5.75;3.20;;;22.20;62.30;;;;;;5052172;28;20151;-65
2022/07/18 03:51:06;;;;;;;5.20;3.00;;;22.20;62.30;;;;;;5051421;28;20087;-64
2022/07/18 03:53:32;;;;;;;6.13;3.03;;;22.20;62.30;;;;;;5052166;28;20041;-64
2022/07/18 03:55:58;;;;;;;5.93;3.17;;;22.20;62.30;;;;;;5051968;28;20041;-64
2022/07/18 03:58:23;;;;;;;5.07;2.95;;;22.20;62.30;;;;;;5051353;28;20064;-65
2022/07/18 04:00:49;;;;;;;5.95;3.15;;;22.20;62.30;;;;;;5054347;28;20535;-64
2022/07/18 04:03:14;;;;;;;6.63;3.42;;;22.20;62.30;;;;;;5056535;28;20057;-64
2022/07/18 04:05:40;;;;;;;5.80;3.22;;;22.20;62.30;;;;;;5071189;28;20044;-64
2022/07/18 04:08:06;;;;;;;6.65;3.58;;;22.20;62.30;;;;;;5073868;28;20036;-64
2022/07/18 04:10:31;;;;;;;5.22;3.13;;;22.20;62.30;;;;;;5076036;28;20038;-64
2022/07/18 04:12:57;;;;;;;5.82;3.10;;;22.20;62.30;;;;;;5073605;28;20093;-65
2022/07/18 04:15:24;;;;;;;6.65;3.70;;;22.10;62.30;;;;;;5075660;28;20044;-65
2022/07/18 04:17:50;;;;;;;4.75;2.95;;;22.20;62.30;;;;;;5075892;28;20070;-64
2022/07/18 04:20:16;;;;;;;5.10;2.90;;;22.20;62.30;;;;;;5073952;28;20056;-64
2022/07/18 04:22:59;;;;;;;5.50;3.33;;;22.20;62.30;;;;;;5075666;28;20041;-64
2022/07/18 04:25:26;;;;;;;6.00;3.45;;;22.20;62.40;;;;;;5074953;28;20123;-64
2022/07/18 04:27:51;;;;;;;6.32;4.03;;;22.20;62.40;;;;;;5074133;28;20040;-64
2022/07/18 04:30:18;;;;;;;4.72;2.67;;;22.20;62.40;;;;;;5075751;28;20052;-64
2022/07/18 04:32:44;;;;;;;5.28;3.30;;;22.20;62.40;;;;;;5073529;28;20129;-64
2022/07/18 04:35:09;;;;;;;5.25;3.20;;;22.20;62.40;;;;;;5075600;28;20084;-64
2022/07/18 04:37:35;;;;;;;5.85;3.08;;;22.10;62.30;;;;;;5075498;28;20040;-64
2022/07/18 04:40:01;;;;;;;5.32;3.08;;;22.20;62.40;;;;;;5074323;28;20044;-64
2022/07/18 04:42:27;;;;;;;5.82;3.03;;;22.20;62.40;;;;;;5075052;28;20044;-64
2022/07/18 04:44:53;;;;;;;5.30;3.30;;;22.20;62.40;;;;;;5075063;28;20048;-64
2022/07/18 04:47:18;;;;;;;5.13;3.17;;;22.10;62.40;;;;;;5074412;28;20120;-64
2022/07/18 04:49:44;;;;;;;4.90;3.08;;;22.10;62.40;;;;;;5073820;28;20072;-65
2022/07/18 04:52:09;;;;;;;6.03;3.28;;;22.20;62.40;;;;;;5074871;28;20484;-65
2022/07/18 04:54:35;;;;;;;5.78;2.90;;;22.10;62.40;;;;;;5073057;28;20056;-64
2022/07/18 04:57:00;;;;;;;5.90;3.38;;;22.20;62.40;;;;;;5073313;28;20048;-64
2022/07/18 04:59:26;;;;;;;4.10;2.85;;;22.10;62.30;;;;;;5073650;28;20120;-64
2022/07/18 05:01:51;;;;;;;6.50;3.25;;;22.10;62.40;;;;;;5072598;28;20094;-65
2022/07/18 05:04:17;;;;;;;5.32;3.13;;;22.20;62.40;;;;;;5074768;28;20048;-65
2022/07/18 05:06:42;;;;;;;5.00;3.03;;;22.20;62.40;;;;;;5074750;28;20045;-65
2022/07/18 05:09:08;;;;;;;6.13;3.05;;;22.20;62.50;;;;;;5074299;28;20063;-64
2022/07/18 05:11:34;;;;;;;5.72;3.30;;;22.10;62.50;;;;;;5074549;28;20036;-65
2022/07/18 05:13:59;;;;;;;4.80;2.90;;;22.20;62.60;;;;;;5074250;28;20114;-64
2022/07/18 05:16:25;;;;;;;4.78;2.80;;;22.20;62.50;;;;;;5072768;28;20135;-65
2022/07/18 05:18:50;;;;;;;5.10;2.90;;;22.20;62.30;;;;;;5072177;28;20195;-62
2022/07/18 05:21:16;;;;;;;7.43;3.50;;;22.20;62.30;;;;;;5072561;28;20040;-63
2022/07/18 05:23:41;;;;;;;8.60;3.42;;;22.10;62.40;;;;;;5072930;28;20091;-63
2022/07/18 05:26:07;;;;;;;7.63;3.78;;;22.20;62.50;;;;;;5072750;28;20080;-63
2022/07/18 05:28:32;;;;;;;8.60;3.83;;;22.20;62.40;;;;;;5072601;28;20056;-63
2022/07/18 05:30:58;;;;;;;14.95;3.78;;;22.20;62.40;;;;;;5074085;28;20051;-63
2022/07/18 05:33:24;;;;;;;14.45;4.38;;;22.20;62.60;;;;;;5074267;28;20036;-63
2022/07/18 05:35:50;;;;;;;13.98;3.80;;;22.20;62.70;;;;;;5073482;28;20059;-63
2022/07/18 05:38:15;;;;;;;10.98;3.40;;;22.20;62.70;;;;;;5074425;28;20086;-63
2022/07/18 05:40:41;;;;;;;9.98;3.40;;;22.20;62.70;;;;;;5074037;28;20040;-63
2022/07/18 05:43:06;;;;;;;15.27;4.22;;;22.20;62.80;;;;;;5072867;28;20170;-63
2022/07/18 05:45:32;;;;;;;9.60;3.38;;;22.20;62.70;;;;;;5074315;28;20064;-63
2022/07/18 05:47:58;;;;;;;12.65;3.67;;;22.20;62.70;;;;;;5073562;28;20125;-63
2022/07/18 05:50:24;;;;;;;7.20;2.78;;;22.20;62.70;;;;;;5071946;28;20040;-63
2022/07/18 05:52:50;;;;;;;8.27;3.05;;;22.20;62.70;;;;;;5072632;28;20052;-62
2022/07/18 05:55:16;;;;;;;10.32;3.60;;;22.20;62.80;;;;;;5073843;28;20377;-62
2022/07/18 05:57:41;;;;;;;10.40;3.47;;;22.20;62.70;;;;;;5072954;28;20430;-63
2022/07/18 06:00:08;;;;;;;7.90;3.42;;;22.20;62.80;;;;;;5073740;28;20048;-63
2022/07/18 06:02:34;;;;;;;10.50;3.22;;;22.20;62.70;;;;;;5073694;28;20045;-62
2022/07/18 06:04:59;;;;;;;8.63;3.45;;;22.20;62.70;;;;;;5072406;28;20051;-62
2022/07/18 06:07:25;;;;;;;8.80;3.33;;;22.20;62.80;;;;;;5072192;28;20491;-62
2022/07/18 06:09:50;;;;;;;9.18;3.80;;;22.20;62.90;;;;;;5073481;28;20511;-63
2022/07/18 06:12:16;;;;;;;12.38;3.40;;;22.30;63.00;;;;;;5072812;28;20480;-63
2022/07/18 06:14:42;;;;;;;9.70;3.20;;;22.20;63.00;;;;;;5072180;28;20434;-63
2022/07/18 06:17:07;;;;;;;8.35;3.33;;;22.30;63.00;;;;;;5073441;28;20048;-64
2022/07/18 06:19:33;;;;;;;10.45;3.10;;;22.30;62.90;;;;;;5072864;28;20044;-63
2022/07/18 06:21:59;;;;;;;9.70;3.35;;;22.30;62.80;;;;;;5073013;28;20402;-64
2022/07/18 06:24:25;;;;;;;8.43;3.03;;;22.30;62.80;;;;;;5073098;28;20059;-64
2022/07/18 06:26:50;;;;;;;7.43;3.33;;;22.30;62.70;;;;;;5071059;28;20041;-64
2022/07/18 06:29:16;;;;;;;9.18;2.72;;;22.30;62.70;;;;;;5072493;28;20089;-63
2022/07/18 06:31:42;;;;;;;6.82;3.25;;;22.30;62.60;;;;;;5072416;28;20076;-62
2022/07/18 06:34:08;;;;;;;9.90;3.25;;;22.30;62.60;;;;;;5072067;28;20051;-62
2022/07/18 06:36:33;;;;;;;8.90;3.10;;;22.30;62.60;;;;;;5071836;28;20056;-63
2022/07/18 06:38:59;;;;;;;9.93;3.60;;;22.30;62.50;;;;;;5072351;28;20045;-64
2022/07/18 06:41:24;;;;;;;8.82;2.80;;;22.30;62.50;;;;;;5073173;28;20037;-61
2022/07/18 06:43:50;;;;;;;6.28;2.25;;;22.30;62.20;;;;;;5072822;28;20495;-61
2022/07/18 06:46:15;;;;;;;7.57;2.42;;;22.30;60.10;;;;;;5072077;28;20470;-61
2022/07/18 06:48:41;;;;;;;6.55;2.15;;;22.20;58.80;;;;;;5072781;28;20484;-61
2022/07/18 06:51:08;;;;;;;6.07;2.28;;;22.10;58.00;;;;;;5072680;28;20557;-61
2022/07/18 06:53:33;;;;;;;6.82;2.17;;;22.10;57.80;;;;;;5071064;28;20055;-60
2022/07/18 06:55:59;;;;;;;6.15;2.20;;;22.10;57.70;;;;;;5072293;28;20040;-61
2022/07/18 06:58:24;;;;;;;6.75;1.75;;;22.00;57.80;;;;;;5073122;28;20036;-60
2022/07/18 07:00:50;;;;;;;7.07;2.22;;;22.00;57.60;;;;;;5071712;28;20462;-60
2022/07/18 07:03:16;;;;;;;5.63;2.20;;;22.00;57.60;;;;;;5072693;28;20037;-60
2022/07/18 07:05:41;;;;;;;6.72;2.63;;;21.90;57.70;;;;;;5072737;28;20036;-60
2022/07/18 07:08:07;;;;;;;4.72;2.22;;;21.90;58.00;;;;;;5070522;28;20044;-60
2022/07/18 07:10:32;;;;;;;4.60;1.70;;;21.80;57.80;;;;;;5072760;28;20048;-60
2022/07/18 07:12:58;;;;;;;5.68;2.00;;;21.80;57.70;;;;;;5072447;28;20041;-60
2022/07/18 07:15:24;;;;;;;7.95;2.35;;;21.80;57.90;;;;;;5071887;28;20109;-61
2022/07/18 07:17:50;;;;;;;5.35;2.10;;;21.80;57.90;;;;;;5072196;28;20040;-60
2022/07/18 07:20:18;;;;;;;5.90;1.75;;;21.80;57.80;;;;;;5072474;28;20047;-60
2022/07/18 07:22:52;;;;;;;3.13;1.52;;;21.70;57.50;;;;;;5070401;28;20394;-61
2022/07/18 07:25:18;;;;;;;5.53;2.10;;;21.80;57.20;;;;;;5072684;28;20059;-60
2022/07/18 07:27:43;;;;;;;6.70;1.70;;;21.80;57.10;;;;;;5070851;28;20044;-60
2022/07/18 07:30:10;;;;;;;3.88;1.52;;;21.80;57.20;;;;;;5071963;28;20123;-60
2022/07/18 07:32:40;;;;;;;6.05;2.00;;;21.80;57.30;;;;;;5071162;28;20051;-62
2022/07/18 07:35:10;;;;;;;5.75;1.60;;;21.80;57.40;;;;;;5070853;28;20063;-62
2022/07/18 07:37:35;;;;;;;4.85;1.60;;;21.80;57.50;;;;;;5070965;28;20059;-63
2022/07/18 07:40:01;;;;;;;4.03;1.73;;;21.80;57.60;;;;;;5071591;28;20459;-63
2022/07/18 07:42:27;;;;;;;3.72;1.77;;;21.90;57.80;;;;;;5075879;28;20037;-63
2022/07/18 07:44:52;;;;;;;4.30;1.70;;;21.90;57.90;;;;;;5074744;28;20388;-63
2022/07/18 07:47:18;;;;;;;5.35;1.98;;;22.00;57.90;;;;;;5092028;28;20045;-63
2022/07/18 07:49:43;;;;;;;8.48;1.70;;;21.90;57.90;;;;;;5090795;28;20140;-63
2022/07/18 07:52:11;;;;;;;3.67;1.60;;;22.00;57.90;;;;;;5075225;28;20040;-63
2022/07/18 07:54:37;;;;;;;5.65;1.50;;;22.00;58.00;;;;;;5076570;28;20048;-64
2022/07/18 07:57:02;;;;;;;5.57;1.70;;;22.00;58.00;;;;;;5074190;28;20101;-64
2022/07/18 07:59:28;;;;;;;3.92;1.55;;;22.10;58.10;;;;;;5058212;28;20050;-64
2022/07/18 08:01:54;;;;;;;4.93;1.58;;;22.10;58.10;;;;;;5074819;28;20037;-64
2022/07/18 08:04:20;;;;;;;5.25;1.73;;;22.10;58.10;;;;;;5074004;28;20044;-64
2022/07/18 08:06:45;;;;;;;4.45;1.60;;;22.10;58.20;;;;;;5074444;28;20048;-64
2022/07/18 08:09:11;;;;;;;4.45;1.55;;;22.20;58.20;;;;;;5076273;28;20048;-64
2022/07/18 08:11:36;;;;;;;2.85;1.38;;;22.20;58.20;;;;;;5075204;28;20033;-64
2022/07/18 08:14:02;;;;;;;2.53;1.38;;;22.20;58.30;;;;;;5074371;28;20456;-65
2022/07/18 08:16:28;;;;;;;2.88;1.27;;;22.20;58.40;;;;;;5076018;28;20044;-64
2022/07/18 08:18:53;;;;;;;5.38;1.63;;;22.20;58.30;;;;;;5074689;28;20052;-64
2022/07/18 08:21:19;;;;;;;2.42;1.10;;;22.30;58.40;;;;;;5075465;28;20047;-64
2022/07/18 08:23:47;;;;;;;4.47;1.40;;;22.30;58.50;;;;;;5074138;28;20056;-64
2022/07/18 08:26:12;;;;;;;3.40;1.58;;;22.30;58.50;;;;;;5073714;28;20505;-64
2022/07/18 08:28:38;;;;;;;3.67;1.40;;;22.30;58.50;;;;;;5074505;28;20123;-64
2022/07/18 08:31:03;;;;;;;4.05;1.70;;;22.30;58.50;;;;;;5075374;28;20125;-64
2022/07/18 08:33:29;;;;;;;4.15;1.40;;;22.30;58.60;;;;;;5075258;28;20185;-64
2022/07/18 08:35:54;;;;;;;3.53;1.48;;;22.30;58.60;;;;;;5075347;28;20036;-64
2022/07/18 08:38:20;;;;;;;3.58;1.75;;;22.40;58.60;;;;;;5074922;28;20067;-64
2022/07/18 08:40:47;;;;;;;3.38;1.45;;;22.40;58.70;;;;;;5075082;28;20086;-64
2022/07/18 08:43:12;;;;;;;3.53;1.40;;;22.40;58.70;;;;;;5075167;28;20105;-64
2022/07/18 08:45:38;;;;;;;3.20;1.27;;;22.40;58.70;;;;;;5073604;28;20041;-64
2022/07/18 08:48:03;;;;;;;5.57;1.60;;;22.40;58.80;;;;;;5074154;28;20086;-64
2022/07/18 08:50:29;;;;;;;3.72;1.40;;;22.40;58.80;;;;;;5057265;28;20040;-64
2022/07/18 08:52:55;;;;;;;3.20;1.67;;;22.40;58.80;;;;;;5072253;28;20113;-64
2022/07/18 08:55:20;;;;;;;4.60;1.42;;;22.40;58.80;;;;;;5073842;28;20036;-64
2022/07/18 08:57:46;;;;;;;3.25;1.33;;;22.40;58.80;;;;;;5074648;28;20044;-64
2022/07/18 09:00:12;;;;;;;2.35;1.30;;;22.40;58.90;;;;;;5073169;28;20045;-64
2022/07/18 09:02:37;;;;;;;3.38;1.40;;;22.50;58.90;;;;;;5075315;28;20074;-65
2022/07/18 09:05:04;;;;;;;2.33;1.10;;;22.50;58.90;;;;;;5073219;28;20478;-64
2022/07/18 09:07:37;;;;;;;4.20;1.40;;;22.50;58.90;;;;;;5074126;28;20496;-64
2022/07/18 09:10:04;;;;;;;2.90;1.30;;;22.50;58.90;;;;;;5074718;28;20372;-64
2022/07/18 09:12:33;;;;;;;4.63;1.30;;;22.50;58.90;;;;;;5074913;28;20471;-64
2022/07/18 09:15:10;;;;;;;3.38;1.30;;;22.50;58.90;;;;;;5073706;28;20123;-64
2022/07/18 09:17:35;;;;;;;2.13;1.20;;;22.50;59.00;;;;;;5074638;28;20040;-64
2022/07/18 09:20:11;;;;;;;2.95;1.02;;;22.60;58.90;;;;;;5074629;28;20052;-64
2022/07/18 09:22:41;;;;;;;5.45;1.55;;;22.50;58.90;;;;;;5074073;28;20082;-64
2022/07/18 09:25:17;;;;;;;3.65;1.52;;;22.60;59.00;;;;;;5074500;28;20052;-64
2022/07/18 09:27:50;;;;;;;3.92;1.42;;;22.60;59.00;;;;;;5092807;28;20568;-65
2022/07/18 09:30:24;;;;;;;2.30;1.23;;;22.60;59.00;;;;;;5094655;28;20048;-64
2022/07/18 09:32:51;;;;;;;3.05;1.20;;;22.60;58.90;;;;;;5094700;28;20051;-64
2022/07/18 09:35:26;;;;;;;3.22;1.30;;;22.60;59.00;;;;;;5092895;28;20044;-64
2022/07/18 09:37:57;;;;;;;2.38;1.13;;;22.70;59.10;;;;;;5094535;28;20138;-64
2022/07/18 09:40:27;;;;;;;4.32;1.42;;;22.60;59.00;;;;;;5094523;28;20044;-65
2022/07/18 09:42:53;;;;;;;2.95;1.05;;;22.60;59.00;;;;;;5092437;28;20377;-65
2022/07/18 09:45:36;;;;;;;4.38;1.50;;;22.70;59.10;;;;;;5094715;28;20135;-64
2022/07/18 09:48:06;;;;;;;4.47;1.20;;;22.70;59.10;;;;;;5094079;28;20050;-65
2022/07/18 09:50:43;;;;;;;6.13;1.60;;;22.70;59.30;;;;;;5089017;28;20510;-65
2022/07/18 09:53:23;;;;;;;4.15;1.45;;;22.70;59.70;;;;;;5069589;28;20036;-65
2022/07/18 09:55:50;;;;;;;4.38;1.30;;;22.70;59.90;;;;;;5071192;28;20119;-64
2022/07/18 09:58:21;;;;;;;3.78;1.45;;;22.70;60.00;;;;;;5072120;28;20502;-65
2022/07/18 10:00:47;;;;;;;3.20;1.30;;;22.70;60.20;;;;;;5073761;28;20128;-64
2022/07/18 10:03:13;;;;;;;2.90;1.17;;;22.70;60.20;;;;;;5072521;28;20123;-64
2022/07/18 10:05:39;;;;;;;7.32;1.60;;;22.80;60.20;;;;;;5072013;28;20040;-65
2022/07/18 10:08:09;;;;;;;3.60;1.40;;;22.70;60.10;;;;;;5073491;28;20484;-64
2022/07/18 10:10:35;;;;;;;4.40;1.20;;;22.80;60.10;;;;;;5073030;28;20094;-65
2022/07/18 10:13:02;;;;;;;3.33;1.23;;;22.80;60.10;;;;;;5071970;28;20042;-63
2022/07/18 10:15:29;;;;;;;2.47;1.17;;;22.80;60.00;;;;;;5072403;28;20482;-63
2022/07/18 10:17:55;;;;;;;4.13;1.73;;;22.80;60.00;;;;;;5072608;28;20048;-63
2022/07/18 10:20:54;;;;;;;2.70;1.48;;;22.80;60.00;;;;;;5072173;28;20048;-63
2022/07/18 10:23:20;;;;;;;2.85;1.33;;;22.80;60.10;;;;;;5064419;28;20044;-62
2022/07/18 10:26:08;;;;;;;1.70;0.95;;;22.80;59.90;;;;;;5072467;28;20059;-62
2022/07/18 10:28:33;;;;;;;3.47;1.13;;;22.90;59.90;;;;;;5073589;28;20052;-62
2022/07/18 10:31:15;;;;;;;2.80;1.38;;;22.90;59.80;;;;;;5071436;28;20097;-62
2022/07/18 10:33:43;;;;;;;4.22;1.48;;;22.90;59.80;;;;;;5073507;28;20040;-62
2022/07/18 10:36:14;;;;;;;3.20;1.30;;;22.90;59.70;;;;;;5072228;28;20037;-62
2022/07/18 10:38:59;;;;;;;3.80;1.42;;;22.90;59.60;;;;;;5072684;28;20040;-62
2022/07/18 10:41:24;;;;;;;2.92;1.20;;;22.90;59.60;;;;;;5072162;28;20086;-62
2022/07/18 10:43:50;;;;;;;4.38;1.33;;;22.90;59.60;;;;;;5071465;28;20127;-62
2022/07/18 10:46:15;;;;;;;3.35;1.38;;;22.90;59.60;;;;;;5071100;28;20127;-62
2022/07/18 10:48:41;;;;;;;4.03;1.10;;;22.90;59.60;;;;;;5073163;28;20123;-62
2022/07/18 10:51:07;;;;;;;3.22;1.27;;;23.00;59.60;;;;;;5071666;28;20449;-63
2022/07/18 10:54:18;;;;;;;3.15;1.20;;;22.90;59.50;;;;;;5070834;28;20109;-63
2022/07/18 10:56:55;;;;;;;4.30;1.40;;;23.00;59.60;;;;;;5071290;28;20446;-63
2022/07/18 10:59:24;;;;;;;3.35;1.20;;;23.00;59.60;;;;;;5072060;28;20403;-62
2022/07/18 11:01:53;;;;;;;3.97;1.20;;;23.00;59.60;;;;;;5072399;28;20045;-63
2022/07/18 11:04:36;;;;;;;2.15;1.00;;;23.00;59.60;;;;;;5072840;28;20040;-62
2022/07/18 11:07:13;;;;;;;3.15;1.13;;;23.00;59.60;;;;;;5071831;28;20040;-63
2022/07/18 11:09:46;;;;;;;5.50;1.30;;;23.00;59.70;;;;;;5071423;28;20044;-63
2022/07/18 11:12:24;;;;;;;2.97;1.27;;;23.00;59.60;;;;;;5072714;28;20052;-63
2022/07/18 11:15:12;;;;;;;2.95;1.25;;;23.00;59.60;;;;;;5071545;28;20123;-62
2022/07/18 11:17:58;;;;;;;3.05;1.50;;;23.00;59.60;;;;;;5071476;28;20410;-62
2022/07/18 11:20:33;;;;;;;2.00;0.93;;;23.00;59.50;;;;;;5072031;28;20486;-63
2022/07/18 11:22:58;;;;;;;4.47;1.52;;;23.00;59.40;;;;;;5071013;28;20118;-63
2022/07/18 11:25:27;;;;;;;3.13;1.50;;;23.00;59.30;;;;;;5071653;28;20070;-63
2022/07/18 11:27:53;;;;;;;5.80;1.33;;;23.00;59.30;;;;;;5070064;28;20083;-63
2022/07/18 11:30:19;;;;;;;3.95;1.42;;;23.00;59.30;;;;;;5072812;28;20040;-63
2022/07/18 11:32:44;;;;;;;4.35;1.30;;;23.00;59.40;;;;;;5072696;28;20040;-64
2022/07/18 11:35:11;;;;;;;4.43;1.30;;;23.00;59.40;;;;;;5070706;28;20480;-63
2022/07/18 11:37:37;;;;;;;3.95;1.10;;;23.00;59.30;;;;;;5071383;28;20041;-63
2022/07/18 11:40:06;;;;;;;2.67;1.33;;;23.00;59.30;;;;;;5070983;28;20055;-64
2022/07/18 11:42:38;;;;;;;3.60;1.30;;;23.10;59.40;;;;;;5071641;28;20041;-63
2022/07/18 11:45:08;;;;;;;2.72;1.30;;;23.10;59.40;;;;;;5072256;28;20045;-63
2022/07/18 11:47:48;;;;;;;4.50;1.40;;;23.10;59.40;;;;;;5071202;28;20506;-61
2022/07/18 11:50:14;;;;;;;3.10;1.10;;;23.00;59.20;;;;;;5071083;28;20534;-65
2022/07/18 11:52:40;;;;;;;3.22;1.10;;;23.10;59.20;;;;;;5072445;28;20076;-65
2022/07/18 11:55:06;;;;;;;6.35;1.35;;;23.10;59.20;;;;;;5070234;28;20056;-64
2022/07/18 11:57:32;;;;;;;3.95;1.77;;;23.10;59.20;;;;;;5070898;28;20087;-63
2022/07/18 11:59:58;;;;;;;2.95;1.13;;;23.10;59.20;;;;;;5070558;28;20072;-63
2022/07/18 12:03:02;;;;;;;4.72;1.50;;;23.10;59.30;;;;;;5071443;28;20848;-63
2022/07/18 12:05:45;;;;;;;3.85;1.17;;;23.20;59.30;;;;;;5070815;28;20094;-63
2022/07/18 12:08:31;;;;;;;2.70;1.33;;;23.20;59.30;;;;;;5072023;28;20432;-63
2022/07/18 12:11:08;;;;;;;6.40;2.30;;;23.20;59.30;;;;;;5071110;28;20395;-64
2022/07/18 12:13:48;;;;;;;3.58;1.77;;;23.20;59.00;;;;;;5072035;28;20515;-65
2022/07/18 12:16:33;;;;;;;8.02;2.28;;;23.20;59.10;;;;;;5071553;28;20059;-65
2022/07/18 12:19:10;;;;;;;6.30;1.73;;;23.20;59.20;;;;;;5070386;28;20044;-64
2022/07/18 12:21:48;;;;;;;4.38;1.75;;;23.20;59.20;;;;;;5070741;28;20410;-64
2022/07/18 12:24:27;;;;;;;5.13;2.03;;;23.20;59.30;;;;;;5071004;28;20056;-64
2022/07/18 12:27:18;;;;;;;5.80;2.25;;;23.20;59.30;;;;;;5071096;28;20049;-65
2022/07/18 12:30:11;;;;;;;6.45;2.15;;;23.20;59.30;;;;;;5074198;28;20044;-64
2022/07/18 12:32:43;;;;;;;8.02;2.50;;;23.20;59.30;;;;;;5075015;28;20368;-64
2022/07/18 12:35:14;;;;;;;6.10;2.20;;;23.20;59.30;;;;;;5074415;28;20045;-65
2022/07/18 12:37:40;;;;;;;6.25;1.83;;;23.20;59.30;;;;;;5074813;28;20533;-64
2022/07/18 12:40:08;;;;;;;6.55;1.80;;;23.20;59.30;;;;;;5075494;28;20044;-64
2022/07/18 12:42:38;;;;;;;7.47;2.28;;;23.20;59.30;;;;;;5075387;28;20048;-64
2022/07/18 12:45:04;;;;;;;4.68;2.03;;;23.20;59.40;;;;;;5074526;28;20132;-64
2022/07/18 12:47:30;;;;;;;6.55;2.17;;;23.30;59.60;;;;;;5075334;28;20479;-64
2022/07/18 12:49:55;;;;;;;4.82;2.20;;;23.30;59.60;;;;;;5073685;28;20124;-64